Time;durP1;ratioP1;P1;durP2;ratioP2;P2;SDS_P1;SDS_P2;PMS_P1;PMS_P2;Temp;Humidity;BMP_temperature;BMP_pressure;BME280_temperature;BME280_humidity;BME280_pressure;Samples;Min_cycle;Max_cycle;Signal;HPM_P1;HPM_P2
2023/03/25 00:01:24;;;;;;;9.30;8.40;;;;;;;14.24;100.00;98763.38;108592;1260;74155;-48
2023/03/25 00:03:52;;;;;;;11.10;9.80;;;;;;;14.26;100.00;98761.93;108690;1260;58551;-48
2023/03/25 00:06:21;;;;;;;12.50;9.60;;;;;;;14.27;100.00;98751.38;108882;1260;57916;-49
2023/03/25 00:08:50;;;;;;;10.20;8.70;;;;;;;14.30;100.00;98749.03;108850;1256;73348;-48
2023/03/25 00:11:19;;;;;;;14.80;11.40;;;;;;;14.31;100.00;98746.18;108916;1256;66216;-49
2023/03/25 00:13:47;;;;;;;14.60;11.10;;;;;;;14.32;100.00;98750.98;108854;1256;73829;-50
2023/03/25 00:16:24;;;;;;;14.90;10.30;;;;;;;14.33;100.00;98755.25;108865;1258;59657;-49
2023/03/25 00:18:52;;;;;;;12.30;10.90;;;;;;;14.33;100.00;98758.30;108853;1257;60539;-49
2023/03/25 00:21:22;;;;;;;10.60;9.50;;;;;;;14.33;100.00;98762.67;108892;1256;72222;-50
2023/03/25 00:23:50;;;;;;;14.80;10.50;;;;;;;14.32;100.00;98761.84;108889;1256;66026;-50
2023/03/25 00:26:18;;;;;;;13.60;10.40;;;;;;;14.30;100.00;98762.87;108510;1256;72703;-49
2023/03/25 00:28:46;;;;;;;14.20;10.10;;;;;;;14.29;100.00;98765.66;105115;1256;60518;-48
2023/03/25 00:31:15;;;;;;;14.40;9.00;;;;;;;14.28;100.00;98767.60;105909;1256;60590;-49
2023/03/25 00:33:43;;;;;;;12.70;8.90;;;;;;;14.26;100.00;98766.68;105197;1260;73950;-51
2023/03/25 00:36:16;;;;;;;12.40;9.10;;;;;;;14.24;100.00;98763.58;106685;1258;67356;-50
2023/03/25 00:38:47;;;;;;;11.90;9.00;;;;;;;14.22;100.00;98760.27;106109;1260;72587;-46
2023/03/25 00:41:16;;;;;;;8.50;7.00;;;;;;;14.21;100.00;98757.67;107000;1256;61257;-49
2023/03/25 00:43:44;;;;;;;13.10;9.80;;;;;;;14.19;100.00;98754.80;105383;1256;61333;-51
2023/03/25 00:46:13;;;;;;;10.10;7.60;;;;;;;14.17;100.00;98755.87;106234;1258;73955;-48
2023/03/25 00:48:48;;;;;;;13.20;7.00;;;;;;;14.14;100.00;98750.84;105104;1256;66997;-48
2023/03/25 00:51:20;;;;;;;11.80;6.40;;;;;;;14.11;100.00;98747.30;105533;1257;72876;-47
2023/03/25 00:53:52;;;;;;;7.20;6.10;;;;;;;14.10;100.00;98752.23;106689;1264;62186;-46
2023/03/25 00:56:21;;;;;;;10.30;6.20;;;;;;;14.08;100.00;98750.05;107900;1259;58536;-44
2023/03/25 00:58:49;;;;;;;9.10;6.80;;;;;;;14.06;100.00;98749.44;106066;1258;74028;-49
2023/03/25 01:01:26;;;;;;;6.00;5.40;;;;;;;14.04;100.00;98746.17;105269;1257;67062;-48
2023/03/25 01:03:58;;;;;;;8.60;5.30;;;;;;;14.03;100.00;98748.06;105442;1259;73027;-50
2023/03/25 01:06:28;;;;;;;6.20;5.30;;;;;;;14.02;100.00;98744.36;105733;1259;60046;-49
2023/03/25 01:08:58;;;;;;;7.90;6.10;;;;;;;14.01;100.00;98745.51;105314;1256;60493;-48
2023/03/25 01:11:28;;;;;;;7.20;5.30;;;;;;;14.00;100.00;98749.02;106296;1256;75030;-48
2023/03/25 01:13:58;;;;;;;8.70;5.90;;;;;;;13.98;100.00;98749.17;106033;1259;68281;-46
2023/03/25 01:16:27;;;;;;;5.60;4.90;;;;;;;13.96;100.00;98751.71;105879;1259;72217;-48
2023/03/25 01:18:56;;;;;;;8.40;6.10;;;;;;;13.93;100.00;98747.58;105511;1261;60824;-47
2023/03/25 01:21:25;;;;;;;10.80;6.50;;;;;;;13.91;100.00;98747.24;105747;1256;60734;-46
2023/03/25 01:23:53;;;;;;;5.10;4.60;;;;;;;13.89;100.00;98746.50;105092;1262;71874;-48
2023/03/25 01:26:21;;;;;;;7.40;6.40;;;;;;;13.86;100.00;98744.16;105732;1256;67979;-50
2023/03/25 01:28:49;;;;;;;8.40;7.30;;;;;;;13.85;100.00;98748.77;105144;1257;73690;-46
2023/03/25 01:31:17;;;;;;;10.00;6.10;;;;;;;13.83;100.00;98745.67;106911;1259;61470;-47
2023/03/25 01:33:45;;;;;;;8.40;6.50;;;;;;;13.82;100.00;98749.19;105289;1261;60447;-47
2023/03/25 01:36:13;;;;;;;7.30;5.80;;;;;;;13.81;100.00;98747.27;105316;1261;74043;-50
2023/03/25 01:38:43;;;;;;;6.90;6.20;;;;;;;13.80;100.00;98746.10;105278;1256;67467;-49
2023/03/25 01:41:11;;;;;;;8.90;6.70;;;;;;;13.78;100.00;98751.99;105579;1260;73008;-48
2023/03/25 01:43:39;;;;;;;6.20;5.60;;;;;;;13.76;100.00;98748.39;105400;1256;60407;-50
2023/03/25 01:46:12;;;;;;;8.80;7.60;;;;;;;13.74;100.00;98746.20;106018;1256;60351;-48
2023/03/25 01:48:41;;;;;;;7.20;6.40;;;;;;;13.72;100.00;98744.95;105296;1256;74789;-49
2023/03/25 01:51:15;;;;;;;9.40;6.50;;;;;;;13.71;100.00;98743.59;105667;1256;68503;-47
2023/03/25 01:53:44;;;;;;;8.60;6.20;;;;;;;13.69;100.00;98745.92;105231;1258;72054;-49
2023/03/25 01:56:14;;;;;;;8.40;7.20;;;;;;;13.66;100.00;98744.13;106157;1256;60471;-47
2023/03/25 01:58:42;;;;;;;8.50;6.80;;;;;;;13.63;100.00;98742.14;105512;1256;60348;-47
2023/03/25 02:01:12;;;;;;;10.90;7.00;;;;;;;13.62;100.00;98736.09;105826;1256;74026;-50
2023/03/25 02:03:45;;;;;;;9.10;6.70;;;;;;;13.61;100.00;98734.90;104951;1263;68656;-49
2023/03/25 02:06:25;;;;;;;9.50;7.50;;;;;;;13.61;100.00;98732.80;105485;1258;72606;-48
2023/03/25 02:08:54;;;;;;;8.10;7.00;;;;;;;13.61;100.00;98732.61;105364;1261;61270;-48
2023/03/25 02:11:27;;;;;;;7.90;6.90;;;;;;;13.60;100.00;98733.25;104988;1262;60595;-50
2023/03/25 02:13:57;;;;;;;8.30;7.40;;;;;;;13.59;100.00;98732.06;105299;1256;74499;-51
2023/03/25 02:16:30;;;;;;;7.00;6.30;;;;;;;13.57;100.00;98729.11;105033;1262;67479;-50
2023/03/25 02:19:21;;;;;;;8.50;7.60;;;;;;;13.56;100.00;98726.88;105149;1257;73917;-49
2023/03/25 02:22:24;;;;;;;9.70;6.00;;;;;;;13.53;100.00;98721.30;105226;1258;60442;-48
2023/03/25 02:24:56;;;;;;;9.40;8.10;;;;;;;13.51;100.00;98722.18;105182;1261;60437;-47
2023/03/25 02:27:32;;;;;;;11.10;7.90;;;;;;;13.50;100.00;98719.02;105881;1256;72919;-49
2023/03/25 02:30:29;;;;;;;9.80;7.40;;;;;;;13.48;100.00;98714.70;104936;1256;67426;-45
2023/03/25 02:33:17;;;;;;;7.90;7.10;;;;;;;13.45;100.00;98716.34;105054;1256;72178;-47
2023/03/25 02:36:04;;;;;;;9.20;7.70;;;;;;;13.43;100.00;98716.20;105601;1256;60523;-46
2023/03/25 02:38:35;;;;;;;7.80;7.10;;;;;;;13.39;100.00;98713.55;105348;1257;60660;-52
2023/03/25 02:41:15;;;;;;;9.10;7.50;;;;;;;13.36;100.00;98713.85;105646;1261;74588;-47
2023/03/25 02:44:08;;;;;;;8.40;7.50;;;;;;;13.32;100.00;98709.23;105043;1257;69040;-49
2023/03/25 02:46:36;;;;;;;10.20;8.00;;;;;;;13.29;100.00;98710.21;105324;1259;72571;-47
2023/03/25 02:49:29;;;;;;;10.00;8.40;;;;;;;13.26;100.00;98714.77;105266;1256;60439;-48
2023/03/25 02:52:01;;;;;;;12.30;8.90;;;;;;;13.23;100.00;98715.70;108877;1256;60950;-48
2023/03/25 02:54:35;;;;;;;11.40;7.70;;;;;;;13.21;100.00;98718.20;106510;1257;74692;-50
2023/03/25 02:57:06;;;;;;;10.10;8.80;;;;;;;13.19;100.00;98717.08;105018;1256;68728;-48
2023/03/25 02:59:37;;;;;;;9.00;8.00;;;;;;;13.18;100.00;98725.09;108752;1256;73312;-50
2023/03/25 03:02:10;;;;;;;13.40;9.10;;;;;;;13.17;100.00;98730.02;108699;1256;59695;-50
2023/03/25 03:04:55;;;;;;;12.30;9.70;;;;;;;13.16;100.00;98732.63;108793;1256;59176;-50
2023/03/25 03:07:35;;;;;;;9.30;8.30;;;;;;;13.15;100.00;98736.11;108947;1256;73631;-52
2023/03/25 03:10:18;;;;;;;10.60;9.40;;;;;;;13.14;100.00;98739.98;108848;1256;68779;-50
2023/03/25 03:13:02;;;;;;;10.40;8.50;;;;;;;13.13;100.00;98736.96;108787;1256;71678;-49
2023/03/25 03:15:40;;;;;;;10.10;7.90;;;;;;;13.14;100.00;98735.11;105286;1260;60762;-48
2023/03/25 03:18:56;;;;;;;10.20;8.40;;;;;;;13.14;100.00;98728.78;108876;1256;58558;-51
2023/03/25 03:21:40;;;;;;;10.30;8.90;;;;;;;13.14;100.00;98729.52;108281;1257;72336;-50
2023/03/25 03:24:18;;;;;;;10.90;9.00;;;;;;;13.13;100.00;98732.81;105955;1256;66349;-49
2023/03/25 03:26:49;;;;;;;10.30;9.00;;;;;;;13.12;100.00;98728.90;105373;1254;73487;-48
2023/03/25 03:29:33;;;;;;;11.50;8.30;;;;;;;13.12;100.00;98727.33;106141;1256;60378;-49
2023/03/25 03:32:15;;;;;;;11.20;9.10;;;;;;;13.11;100.00;98716.23;105448;1254;60573;-50
2023/03/25 03:35:02;;;;;;;12.80;8.30;;;;;;;13.08;100.00;98707.11;109124;1253;74421;-49
2023/03/25 03:37:40;;;;;;;15.00;8.30;;;;;;;13.05;100.00;98714.54;108052;1253;68245;-48
2023/03/25 03:40:11;;;;;;;11.70;8.20;;;;;;;13.01;100.00;98716.59;106118;1256;72087;-47
2023/03/25 03:42:41;;;;;;;10.00;9.00;;;;;;;12.98;100.00;98718.79;105687;1256;60517;-48
2023/03/25 03:45:18;;;;;;;13.20;9.70;;;;;;;12.97;100.00;98714.75;106671;1253;60534;-47
2023/03/25 03:47:47;;;;;;;11.80;8.80;;;;;;;12.95;100.00;98716.73;105498;1253;74140;-48
2023/03/25 03:50:22;;;;;;;10.00;8.40;;;;;;;12.93;100.00;98720.84;105983;1253;67859;-49
2023/03/25 03:52:56;;;;;;;12.10;10.90;;;;;;;12.90;100.00;98722.81;106071;1253;71769;-50
2023/03/25 03:56:00;;;;;;;10.20;8.50;;;;;;;12.87;100.00;98718.32;106335;1253;60998;-49
2023/03/25 03:58:32;;;;;;;10.80;8.40;;;;;;;12.84;100.00;98721.27;105603;1254;61238;-49
2023/03/25 04:01:32;;;;;;;11.60;8.70;;;;;;;12.81;100.00;98724.55;104910;1253;75611;-47
2023/03/25 04:04:06;;;;;;;11.20;8.30;;;;;;;12.78;100.00;98726.76;105428;1253;67445;-48
2023/03/25 04:06:45;;;;;;;12.10;9.00;;;;;;;12.76;100.00;98723.70;105711;1254;73364;-48
2023/03/25 04:09:26;;;;;;;10.60;8.00;;;;;;;12.74;100.00;98718.81;105406;1256;60534;-48
2023/03/25 04:11:57;;;;;;;12.50;10.80;;;;;;;12.73;100.00;98718.66;106059;1257;60831;-49
2023/03/25 04:14:31;;;;;;;11.60;10.20;;;;;;;12.72;100.00;98717.52;105397;1253;74842;-49
2023/03/25 04:17:00;;;;;;;11.20;9.80;;;;;;;12.71;100.00;98716.16;105322;1255;67588;-48
2023/03/25 04:19:28;;;;;;;11.70;9.20;;;;;;;12.69;100.00;98715.05;106004;1254;71848;-49
2023/03/25 04:21:58;;;;;;;12.20;10.20;;;;;;;12.67;100.00;98716.09;105521;1253;60480;-50
2023/03/25 04:24:30;;;;;;;11.80;10.40;;;;;;;12.65;100.00;98712.27;105533;1253;61777;-47
2023/03/25 04:27:03;;;;;;;12.20;10.80;;;;;;;12.64;100.00;98710.71;105532;1257;74776;-49
2023/03/25 04:29:32;;;;;;;13.30;10.40;;;;;;;12.62;100.00;98712.09;105700;1254;68100;-49
2023/03/25 04:32:02;;;;;;;13.10;10.10;;;;;;;12.60;100.00;98705.77;105496;1256;72391;-48
2023/03/25 04:34:30;;;;;;;12.30;10.80;;;;;;;12.59;100.00;98704.43;105273;1255;60364;-50
2023/03/25 04:36:58;;;;;;;12.60;9.20;;;;;;;12.58;100.00;98700.55;105462;1253;60948;-46
2023/03/25 04:39:28;;;;;;;13.40;10.50;;;;;;;12.57;100.00;98708.73;105007;1253;72875;-48
2023/03/25 04:41:57;;;;;;;14.50;10.10;;;;;;;12.56;100.00;98698.92;105325;1253;69651;-47
2023/03/25 04:44:24;;;;;;;15.30;10.50;;;;;;;12.56;100.00;98694.98;105154;1256;71874;-47
2023/03/25 04:46:54;;;;;;;13.00;9.00;;;;;;;12.55;100.00;98695.38;104680;1253;60629;-48
2023/03/25 04:49:25;;;;;;;11.90;8.50;;;;;;;12.55;100.00;98684.21;104832;1255;60380;-49
2023/03/25 04:51:54;;;;;;;16.30;9.60;;;;;;;12.55;100.00;98684.92;104620;1252;73042;-50
2023/03/25 04:54:22;;;;;;;14.10;10.50;;;;;;;12.56;100.00;98682.91;105561;1256;68573;-48
2023/03/25 04:56:50;;;;;;;14.40;10.90;;;;;;;12.57;100.00;98681.77;106045;1253;72243;-49
2023/03/25 04:59:20;;;;;;;10.90;8.70;;;;;;;12.58;100.00;98678.60;105456;1259;60664;-50
2023/03/25 05:01:48;;;;;;;11.40;9.10;;;;;;;12.58;100.00;98679.65;108690;1253;59976;-48
2023/03/25 05:04:17;;;;;;;14.20;9.40;;;;;;;12.60;100.00;98681.31;105485;1260;72891;-47
2023/03/25 05:06:49;;;;;;;11.80;8.80;;;;;;;12.61;100.00;98678.75;105616;1256;67283;-47
2023/03/25 05:09:19;;;;;;;17.70;10.10;;;;;;;12.62;100.00;98676.87;106036;1254;72806;-48
2023/03/25 05:11:48;;;;;;;12.60;9.80;;;;;;;12.63;100.00;98670.67;105755;1253;60349;-47
2023/03/25 05:14:22;;;;;;;9.50;8.40;;;;;;;12.64;100.00;98665.90;105444;1256;60825;-48
2023/03/25 05:16:50;;;;;;;9.70;8.50;;;;;;;12.64;100.00;98666.27;105895;1257;73036;-49
2023/03/25 05:19:19;;;;;;;17.60;10.90;;;;;;;12.65;100.00;98663.50;105625;1256;67372;-48
2023/03/25 05:21:48;;;;;;;13.70;9.10;;;;;;;12.65;100.00;98668.58;106001;1254;70996;-49
2023/03/25 05:24:16;;;;;;;12.90;9.40;;;;;;;12.65;100.00;98669.27;105491;1257;60534;-48
2023/03/25 05:26:44;;;;;;;10.20;8.90;;;;;;;12.66;100.00;98669.71;106110;1253;60487;-46
2023/03/25 05:29:13;;;;;;;12.90;10.30;;;;;;;12.68;100.00;98672.48;105620;1256;74399;-49
2023/03/25 05:31:45;;;;;;;13.90;10.00;;;;;;;12.68;100.00;98671.36;105575;1253;68205;-47
2023/03/25 05:34:17;;;;;;;12.20;9.80;;;;;;;12.69;100.00;98668.20;105523;1253;72170;-49
2023/03/25 05:36:45;;;;;;;9.50;8.60;;;;;;;12.71;100.00;98665.17;105720;1257;61381;-48
2023/03/25 05:39:14;;;;;;;12.10;9.70;;;;;;;12.74;100.00;98660.64;105969;1253;60468;-49
2023/03/25 05:41:44;;;;;;;12.00;8.90;;;;;;;12.76;100.00;98657.82;106713;1258;74418;-49
2023/03/25 05:44:13;;;;;;;9.80;8.90;;;;;;;12.77;100.00;98652.10;106824;1256;67668;-46
2023/03/25 05:46:42;;;;;;;10.90;9.70;;;;;;;12.79;100.00;98651.80;105590;1257;72583;-48
2023/03/25 05:49:11;;;;;;;10.40;8.40;;;;;;;12.81;100.00;98643.59;109298;1252;60654;-49
2023/03/25 05:51:40;;;;;;;10.80;9.20;;;;;;;12.82;100.00;98644.42;109267;1253;60310;-49
2023/03/25 05:54:09;;;;;;;10.80;8.40;;;;;;;12.83;100.00;98640.70;108472;1255;74344;-47
2023/03/25 05:56:39;;;;;;;10.80;9.10;;;;;;;12.85;100.00;98640.52;105413;1254;68479;-49
2023/03/25 05:59:08;;;;;;;10.30;9.20;;;;;;;12.88;100.00;98639.98;109170;1253;72470;-47
2023/03/25 06:01:36;;;;;;;13.10;9.10;;;;;;;12.90;100.00;98635.68;109233;1252;59499;-48
2023/03/25 06:04:08;;;;;;;9.20;8.40;;;;;;;12.93;100.00;98646.29;109196;1256;59545;-48
2023/03/25 06:06:40;;;;;;;12.60;10.80;;;;;;;12.94;100.00;98648.35;109298;1253;74823;-48
2023/03/25 06:09:09;;;;;;;13.40;10.60;;;;;;;12.94;100.00;98639.88;109294;1256;66868;-49
2023/03/25 06:11:37;;;;;;;13.00;8.90;;;;;;;12.94;100.00;98637.20;108932;1257;72839;-50
2023/03/25 06:14:06;;;;;;;11.40;8.90;;;;;;;12.92;100.00;98636.26;105365;1255;60598;-50
2023/03/25 06:16:35;;;;;;;16.60;8.60;;;;;;;12.92;100.00;98640.63;105380;1257;61287;-50
2023/03/25 06:19:03;;;;;;;10.50;9.00;;;;;;;12.91;100.00;98639.80;109224;1253;72962;-49
2023/03/25 06:21:33;;;;;;;16.20;9.50;;;;;;;12.90;100.00;98635.70;108808;1254;66342;-52
2023/03/25 06:24:04;;;;;;;10.20;9.20;;;;;;;12.90;100.00;98633.36;106967;1253;72858;-50
2023/03/25 06:26:33;;;;;;;11.40;9.70;;;;;;;12.88;100.00;98628.08;105377;1259;61124;-47
2023/03/25 06:29:02;;;;;;;13.20;9.50;;;;;;;12.87;100.00;98625.27;105332;1253;60824;-48
2023/03/25 06:31:32;;;;;;;10.00;9.10;;;;;;;12.86;100.00;98623.34;109342;1255;73941;-49
2023/03/25 06:34:01;;;;;;;10.50;9.40;;;;;;;12.87;100.00;98617.90;109330;1253;66755;-49
2023/03/25 06:36:31;;;;;;;10.60;9.10;;;;;;;12.87;100.00;98619.71;105693;1253;72078;-49
2023/03/25 06:38:59;;;;;;;10.60;7.60;;;;;;;12.87;100.00;98616.77;105708;1257;60509;-48
2023/03/25 06:41:34;;;;;;;16.20;8.60;;;;;;;12.90;100.00;98615.91;105451;1254;60522;-48
2023/03/25 06:44:29;;;;;;;10.60;9.50;;;;;;;12.92;100.00;98620.05;105439;1256;73662;-49
2023/03/25 06:47:30;;;;;;;12.40;9.30;;;;;;;12.94;100.00;98621.00;105385;1257;69552;-49
2023/03/25 06:49:59;;;;;;;10.70;9.10;;;;;;;12.96;100.00;98620.69;105448;1253;70651;-47
2023/03/25 06:52:27;;;;;;;13.20;10.80;;;;;;;12.99;100.00;98619.32;105502;1258;60627;-47
2023/03/25 06:54:58;;;;;;;11.60;9.00;;;;;;;13.03;100.00;98616.86;105644;1258;60505;-46
2023/03/25 06:57:26;;;;;;;13.30;9.10;;;;;;;13.07;100.00;98609.19;105690;1253;72861;-48
2023/03/25 07:00:00;;;;;;;11.40;10.30;;;;;;;13.12;100.00;98608.98;106099;1256;66779;-47
2023/03/25 07:02:29;;;;;;;16.90;10.50;;;;;;;13.16;100.00;98608.68;105590;1257;72730;-48
2023/03/25 07:04:57;;;;;;;16.20;10.30;;;;;;;13.21;100.00;98606.67;105539;1257;60343;-48
2023/03/25 07:07:33;;;;;;;11.90;10.60;;;;;;;13.27;100.00;98607.65;105379;1253;60436;-48
2023/03/25 07:10:01;;;;;;;12.10;8.20;;;;;;;13.34;100.00;98603.35;105500;1256;74733;-48
2023/03/25 07:12:32;;;;;;;15.40;10.70;;;;;;;13.42;100.00;98602.31;105565;1256;66887;-49
2023/03/25 07:15:05;;;;;;;;;;;;;;;13.53;100.00;98600.59;106539;1253;70745;-47
2023/03/25 07:17:34;;;;;;;9.30;8.30;;;;;;;13.63;100.00;98594.56;106609;1253;60522;-50
2023/03/25 07:20:07;;;;;;;15.30;11.00;;;;;;;13.76;100.00;98591.94;105443;1258;60339;-50
2023/03/25 07:22:38;;;;;;;10.90;9.80;;;;;;;13.88;100.00;98587.84;106422;1257;73777;-50
2023/03/25 07:25:06;;;;;;;14.70;10.50;;;;;;;13.99;100.00;98586.75;105565;1253;70323;-49
2023/03/25 07:27:35;;;;;;;11.70;10.00;;;;;;;14.10;100.00;98595.97;105896;1257;71988;-50
2023/03/25 07:30:07;;;;;;;12.00;9.50;;;;;;;14.19;100.00;98591.33;105425;1253;60485;-49
2023/03/25 07:32:38;;;;;;;13.30;11.90;;;;;;;14.26;100.00;98588.95;106140;1256;60513;-49
2023/03/25 07:35:08;;;;;;;10.90;9.50;;;;;;;14.32;100.00;98586.03;106024;1253;73561;-48
2023/03/25 07:37:36;;;;;;;11.20;9.50;;;;;;;14.40;100.00;98578.24;105910;1257;66832;-48
2023/03/25 07:40:05;;;;;;;14.50;11.70;;;;;;;14.45;100.00;98572.95;105639;1256;71957;-48
2023/03/25 07:42:35;;;;;;;15.30;11.70;;;;;;;14.49;100.00;98569.89;106207;1257;61243;-49
2023/03/25 07:45:36;;;;;;;11.20;10.10;;;;;;;14.52;100.00;98569.81;105364;1253;60880;-51
2023/03/25 07:48:15;;;;;;;11.60;10.30;;;;;;;14.56;100.00;98566.65;105545;1253;77452;-50
2023/03/25 07:50:44;;;;;;;11.70;10.10;;;;;;;14.59;100.00;98560.56;105791;1259;68923;-48
2023/03/25 07:53:14;;;;;;;14.40;9.50;;;;;;;14.62;100.00;98559.05;105804;1253;72440;-50
2023/03/25 07:55:44;;;;;;;10.80;9.80;;;;;;;14.64;100.00;98557.63;105674;1258;60400;-49
2023/03/25 07:58:12;;;;;;;13.80;12.30;;;;;;;14.65;100.00;98551.02;105990;1257;60312;-48
2023/03/25 08:00:41;;;;;;;12.60;11.20;;;;;;;14.66;100.00;98543.88;105487;1259;73293;-47
2023/03/25 08:03:11;;;;;;;15.20;11.20;;;;;;;14.69;100.00;98538.64;105476;1259;68667;-48
2023/03/25 08:05:45;;;;;;;10.50;9.50;;;;;;;14.72;100.00;98530.37;106683;1254;70791;-48
2023/03/25 08:08:14;;;;;;;12.70;11.50;;;;;;;14.76;100.00;98531.70;105824;1253;60446;-49
2023/03/25 08:10:42;;;;;;;16.20;14.50;;;;;;;14.80;100.00;98530.09;105708;1254;60594;-48
2023/03/25 08:13:10;;;;;;;14.70;10.90;;;;;;;14.85;100.00;98533.98;106108;1257;73214;-48
2023/03/25 08:15:39;;;;;;;11.50;10.30;;;;;;;14.90;100.00;98530.14;105696;1257;68145;-49
2023/03/25 08:20:34;;;;;;;12.80;11.60;;;;;;;14.98;100.00;98513.35;102069;1293;600348;-49
2023/03/25 08:23:03;;;;;;;12.50;10.40;;;;;;;15.03;100.00;98514.22;104506;1267;59390;-49
2023/03/25 08:25:31;;;;;;;14.50;10.40;;;;;;;15.05;100.00;98510.77;104326;1272;61647;-48
2023/03/25 08:28:03;;;;;;;15.50;10.70;;;;;;;15.07;100.00;98509.98;107701;1267;73201;-49
2023/03/25 08:30:38;;;;;;;12.20;10.40;;;;;;;15.10;100.00;98505.60;106763;1266;68706;-48
2023/03/25 08:33:08;;;;;;;20.40;12.40;;;;;;;15.15;100.00;98506.11;104151;1268;165642;-48
2023/03/25 08:35:56;;;;;;;12.40;11.30;;;;;;;15.18;100.00;98506.23;105254;1260;59562;-49
2023/03/25 08:38:30;;;;;;;12.40;11.10;;;;;;;15.19;100.00;98508.88;106179;1259;60909;-49
2023/03/25 08:41:01;;;;;;;12.90;11.70;;;;;;;15.19;100.00;98505.27;105031;1260;72517;-48
2023/03/25 08:43:31;;;;;;;15.10;12.00;;;;;;;15.18;100.00;98503.33;105150;1261;68224;-47
2023/03/25 08:46:08;;;;;;;13.70;12.30;;;;;;;15.18;100.00;98503.34;105035;1260;73422;-48
2023/03/25 08:48:36;;;;;;;12.00;10.80;;;;;;;15.17;100.00;98501.39;108885;1257;60918;-49
2023/03/25 08:51:05;;;;;;;13.50;11.80;;;;;;;15.18;100.00;98500.08;108912;1256;59180;-50
2023/03/25 08:53:33;;;;;;;11.90;10.70;;;;;;;15.18;100.00;98507.13;108927;1257;70582;-50
2023/03/25 08:56:02;;;;;;;13.50;11.00;;;;;;;15.19;100.00;98504.17;108930;1257;67994;-50
2023/03/25 08:58:30;;;;;;;12.70;11.60;;;;;;;15.20;100.00;98506.58;108893;1256;70867;-50
2023/03/25 09:00:58;;;;;;;14.40;12.00;;;;;;;15.22;100.00;98500.09;108927;1256;61060;-50
2023/03/25 09:03:26;;;;;;;15.50;12.60;;;;;;;15.25;100.00;98503.99;108868;1256;59498;-49
2023/03/25 09:05:54;;;;;;;13.80;11.80;;;;;;;15.28;100.00;98508.08;108972;1256;72438;-50
2023/03/25 09:08:23;;;;;;;13.20;11.30;;;;;;;15.30;100.00;98508.64;108973;1257;66569;-50
2023/03/25 09:10:51;;;;;;;16.00;11.90;;;;;;;15.31;100.00;98506.16;108841;1258;74144;-49
2023/03/25 09:13:19;;;;;;;13.10;11.80;;;;;;;15.33;100.00;98505.94;108777;1261;60444;-51
2023/03/25 09:15:47;;;;;;;14.00;12.10;;;;;;;15.37;100.00;98502.20;108857;1257;58906;-49
2023/03/25 09:18:17;;;;;;;11.50;10.50;;;;;;;15.41;100.00;98496.39;108875;1260;73249;-49
2023/03/25 09:20:47;;;;;;;12.30;11.10;;;;;;;15.47;100.00;98490.61;108898;1258;67479;-49
2023/03/25 09:23:15;;;;;;;11.90;10.80;;;;;;;15.53;100.00;98485.27;108882;1257;71761;-49
2023/03/25 09:25:45;;;;;;;9.80;8.90;;;;;;;15.56;100.00;98472.40;108883;1257;59489;-50
2023/03/25 09:28:13;;;;;;;12.80;10.70;;;;;;;15.57;100.00;98463.97;108924;1257;59169;-49
2023/03/25 09:30:41;;;;;;;14.20;12.20;;;;;;;15.61;100.00;98461.04;108852;1258;73276;-50
2023/03/25 09:33:11;;;;;;;12.60;11.20;;;;;;;15.66;100.00;98478.84;108895;1257;68207;-49
2023/03/25 09:35:39;;;;;;;13.90;11.90;;;;;;;15.69;100.00;98483.60;108812;1257;71448;-49
2023/03/25 09:38:08;;;;;;;13.30;11.80;;;;;;;15.73;100.00;98483.16;108841;1258;58076;-49
2023/03/25 09:40:41;;;;;;;13.70;12.50;;;;;;;15.75;100.00;98482.55;108360;1256;59489;-49
2023/03/25 09:43:31;;;;;;;12.10;10.90;;;;;;;15.75;100.00;98479.13;105265;1257;74074;-49
2023/03/25 09:46:00;;;;;;;11.30;10.30;;;;;;;15.74;100.00;98473.59;105221;1260;68008;-49
2023/03/25 09:48:39;;;;;;;13.90;12.50;;;;;;;15.73;100.00;98470.66;107672;1260;72416;-48
2023/03/25 09:51:21;;;;;;;18.80;11.40;;;;;;;15.71;100.00;98463.55;104754;1263;60696;-48
2023/03/25 09:53:55;;;;;;;15.90;13.60;;;;;;;15.71;100.00;98451.09;105021;1257;60591;-48
2023/03/25 09:56:24;;;;;;;16.20;12.80;;;;;;;15.69;100.00;98441.56;105975;1260;73603;-46
2023/03/25 09:58:55;;;;;;;15.50;14.00;;;;;;;15.68;100.00;98450.12;106765;1260;66255;-48
2023/03/25 10:01:42;;;;;;;16.30;11.80;;;;;;;15.67;100.00;98450.03;105331;1262;71660;-47
2023/03/25 10:04:32;;;;;;;13.50;12.30;;;;;;;15.65;100.00;98455.21;105039;1258;59637;-50
2023/03/25 10:07:35;;;;;;;15.50;12.50;;;;;;;15.65;100.00;98451.80;104784;1257;59789;-48
2023/03/25 10:10:31;;;;;;;15.90;13.60;;;;;;;15.65;100.00;98442.77;104905;1267;73557;-49
2023/03/25 10:13:21;;;;;;;15.50;13.50;;;;;;;15.63;100.00;98444.21;105122;1257;68122;-47
2023/03/25 10:16:00;;;;;;;18.60;15.50;;;;;;;15.63;100.00;98446.61;105025;1254;72675;-48
2023/03/25 10:19:06;;;;;;;16.80;15.10;;;;;;;15.62;100.00;98440.15;104980;1254;61583;-47
2023/03/25 10:21:48;;;;;;;15.40;13.90;;;;;;;15.61;100.00;98443.70;104938;1255;61934;-49
2023/03/25 10:24:21;;;;;;;14.30;12.90;;;;;;;15.60;100.00;98439.64;105336;1254;73589;-50
2023/03/25 10:27:25;;;;;;;15.50;13.80;;;;;;;15.59;100.00;98436.08;105543;1257;67913;-47
2023/03/25 10:30:23;;;;;;;13.70;12.00;;;;;;;15.59;100.00;98440.95;105839;1257;72601;-49
2023/03/25 10:32:56;;;;;;;14.30;12.80;;;;;;;15.60;100.00;98442.18;105569;1257;62413;-48
2023/03/25 10:35:28;;;;;;;14.30;11.70;;;;;;;15.59;100.00;98437.86;105256;1254;62278;-49
2023/03/25 10:38:06;;;;;;;13.50;12.10;;;;;;;15.59;100.00;98440.46;105740;1254;70913;-49
2023/03/25 10:40:52;;;;;;;13.30;11.20;;;;;;;15.57;100.00;98435.19;105401;1257;68106;-47
2023/03/25 10:43:31;;;;;;;13.20;11.90;;;;;;;15.55;100.00;98431.07;105461;1257;73135;-48
2023/03/25 10:46:20;;;;;;;13.80;12.40;;;;;;;15.53;100.00;98425.56;105360;1258;60188;-48
2023/03/25 10:48:50;;;;;;;14.80;13.20;;;;;;;15.53;100.00;98423.05;105286;1258;59677;-48
2023/03/25 10:51:19;;;;;;;14.70;13.20;;;;;;;15.54;100.00;98415.78;105015;1258;73110;-48
2023/03/25 10:53:53;;;;;;;13.10;11.70;;;;;;;15.55;100.00;98412.64;105327;1254;70573;-47
2023/03/25 10:56:24;;;;;;;14.70;12.20;;;;;;;15.57;100.00;98412.95;105159;1254;73092;-48
2023/03/25 10:58:54;;;;;;;13.70;12.30;;;;;;;15.60;100.00;98409.59;105802;1257;60339;-49
2023/03/25 11:01:41;;;;;;;15.20;12.40;;;;;;;15.64;100.00;98407.40;105891;1254;60721;-49
2023/03/25 11:04:17;;;;;;;16.00;14.20;;;;;;;15.71;100.00;98405.33;105349;1257;72335;-49
2023/03/25 11:06:51;;;;;;;23.00;14.00;;;;;;;15.80;100.00;98397.83;105733;1255;67375;-48
2023/03/25 11:09:29;;;;;;;20.50;13.20;;;;;;;15.89;100.00;98391.55;105751;1258;71375;-49
2023/03/25 11:12:03;;;;;;;16.20;14.00;;;;;;;16.01;100.00;98383.78;105582;1260;59785;-49
2023/03/25 11:14:36;;;;;;;15.40;13.70;;;;;;;16.12;100.00;98382.52;105383;1259;59660;-49
2023/03/25 11:17:13;;;;;;;15.30;13.80;;;;;;;16.24;100.00;98379.85;105538;1254;72841;-48
2023/03/25 11:19:51;;;;;;;14.70;11.30;;;;;;;16.33;100.00;98373.88;105461;1258;67156;-48
2023/03/25 11:22:27;;;;;;;17.70;14.50;;;;;;;16.41;100.00;98375.14;105439;1255;72899;-48
2023/03/25 11:25:00;;;;;;;13.40;12.10;;;;;;;16.47;100.00;98370.95;105783;1258;60162;-49
2023/03/25 11:27:29;;;;;;;14.70;13.40;;;;;;;16.51;100.00;98369.65;105733;1254;59762;-49
2023/03/25 11:30:03;;;;;;;12.80;11.50;;;;;;;16.53;100.00;98373.43;105250;1258;73005;-49
2023/03/25 11:32:35;;;;;;;18.90;12.90;;;;;;;16.54;100.00;98377.49;106252;1254;66860;-48
2023/03/25 11:35:18;;;;;;;17.40;13.40;;;;;;;16.55;100.00;98382.30;106065;1257;71749;-49
2023/03/25 11:37:48;;;;;;;15.50;13.50;;;;;;;16.55;100.00;98383.35;105372;1261;59583;-46